Time;durP1;ratioP1;P1;durP2;ratioP2;P2;SDS_P1;SDS_P2;PMS_P1;PMS_P2;Temp;Humidity;BMP_temperature;BMP_pressure;BME280_temperature;BME280_humidity;BME280_pressure;Samples;Min_cycle;Max_cycle;Signal;HPM_P1;HPM_P2
2022/01/24 00:01:24;;;;;;;14.80;9.60;;;5.40;99.90;;;;;;4977598;28;20192;-74
2022/01/24 00:03:56;;;;;;;17.13;10.43;;;5.50;99.90;;;;;;4977164;28;20224;-74
2022/01/24 00:06:23;;;;;;;14.93;9.30;;;5.40;99.90;;;;;;4976869;28;20691;-74
2022/01/24 00:08:48;;;;;;;14.97;8.90;;;5.40;99.90;;;;;;4977814;28;20188;-75
2022/01/24 00:11:18;;;;;;;14.97;9.53;;;5.40;99.90;;;;;;4977592;28;20896;-75
2022/01/24 00:16:35;;;;;;;14.00;8.50;;;5.40;99.90;;;;;;4975978;28;20250;-74
2022/01/24 00:26:57;;;;;;;15.13;8.50;;;5.30;99.90;;;;;;4976377;28;20195;-74
2022/01/24 00:29:25;;;;;;;15.07;8.10;;;5.40;99.90;;;;;;4979273;28;20215;-76
2022/01/24 00:31:51;;;;;;;12.93;7.70;;;5.30;99.90;;;;;;4976509;28;20615;-75
2022/01/24 00:34:17;;;;;;;14.87;8.80;;;5.30;99.90;;;;;;4973697;28;20329;-76
2022/01/24 00:36:47;;;;;;;13.93;8.70;;;5.30;99.90;;;;;;4981964;28;20270;-74
2022/01/24 00:39:13;;;;;;;15.63;9.37;;;5.30;99.90;;;;;;4974930;28;20192;-76
2022/01/24 00:42:05;;;;;;;19.23;11.40;;;5.40;99.90;;;;;;4976356;28;20196;-72
2022/01/24 00:55:48;;;;;;;16.77;8.87;;;5.50;99.90;;;;;;4974121;28;20199;-77
2022/01/24 00:58:14;;;;;;;15.03;8.60;;;5.40;99.90;;;;;;4975110;28;20649;-75
2022/01/24 01:00:40;;;;;;;14.70;9.00;;;5.40;99.90;;;;;;4977937;28;20268;-75
2022/01/24 01:03:07;;;;;;;12.87;8.03;;;5.30;99.90;;;;;;4974842;28;20196;-76
2022/01/24 01:19:02;;;;;;;13.17;8.77;;;5.20;99.90;;;;;;4974911;28;20242;-76
2022/01/24 01:21:28;;;;;;;19.00;10.57;;;5.30;99.90;;;;;;4977814;28;20648;-74
2022/01/24 01:23:57;;;;;;;17.13;10.53;;;5.30;99.90;;;;;;4976706;28;20658;-74
2022/01/24 01:29:20;;;;;;;18.00;9.23;;;5.40;99.90;;;;;;4975833;28;20176;-74
2022/01/24 01:34:59;;;;;;;16.03;9.27;;;5.30;99.90;;;;;;4977605;28;20287;-72
2022/01/24 01:56:07;;;;;;;16.50;9.37;;;5.30;99.90;;;;;;4975739;28;20192;-75
2022/01/24 01:58:33;;;;;;;18.33;9.53;;;5.30;99.90;;;;;;4974288;28;20214;-74
2022/01/24 02:01:00;;;;;;;17.00;9.50;;;5.20;99.90;;;;;;4977880;28;20183;-72
2022/01/24 02:03:27;;;;;;;16.10;9.10;;;5.20;99.90;;;;;;4976689;28;21276;-74
2022/01/24 02:05:53;;;;;;;16.57;9.77;;;5.20;99.90;;;;;;4977607;28;20234;-74
2022/01/24 02:08:22;;;;;;;14.00;8.47;;;5.10;99.90;;;;;;4977037;28;20188;-73
2022/01/24 02:10:48;;;;;;;18.17;9.90;;;5.10;99.90;;;;;;4975963;28;20196;-73
2022/01/24 02:13:14;;;;;;;15.13;9.23;;;5.10;99.90;;;;;;4976241;28;20192;-73
2022/01/24 02:25:52;;;;;;;12.97;8.00;;;5.10;99.90;;;;;;4973807;28;20191;-74
2022/01/24 02:28:21;;;;;;;14.87;8.67;;;5.20;99.90;;;;;;4974605;28;20215;-74
2022/01/24 02:33:32;;;;;;;18.43;8.73;;;5.20;99.90;;;;;;4976265;28;20679;-75
2022/01/24 02:35:57;;;;;;;14.40;8.13;;;5.10;99.90;;;;;;4975556;28;20195;-75
2022/01/24 02:38:42;;;;;;;15.00;8.67;;;5.10;99.90;;;;;;4973978;28;20184;-76
2022/01/24 02:49:27;;;;;;;13.57;7.83;;;5.10;99.90;;;;;;4980181;28;20271;-75
2022/01/24 02:52:00;;;;;;;14.77;7.90;;;5.10;99.90;;;;;;4981757;28;20227;-73
2022/01/24 02:54:29;;;;;;;13.13;8.33;;;5.10;99.90;;;;;;4980747;28;20240;-74
2022/01/24 02:56:55;;;;;;;15.10;8.00;;;5.10;99.90;;;;;;4980830;28;20184;-73
2022/01/24 02:59:21;;;;;;;14.40;7.90;;;5.10;99.90;;;;;;4980078;28;20176;-77
2022/01/24 03:01:47;;;;;;;12.83;7.77;;;5.10;99.90;;;;;;4981210;28;20189;-73
2022/01/24 03:04:13;;;;;;;13.53;7.40;;;5.10;99.90;;;;;;4981611;28;20235;-79
2022/01/24 03:06:39;;;;;;;14.93;8.33;;;5.10;99.90;;;;;;4981527;28;20188;-75
2022/01/24 03:09:05;;;;;;;13.47;7.70;;;5.10;99.90;;;;;;4981482;28;20189;-74
2022/01/24 03:12:37;;;;;;;17.30;8.50;;;5.10;99.90;;;;;;4983712;28;20688;-74
2022/01/24 03:14:22;;;;;;;13.97;7.97;;;5.10;99.90;;;;;;4971164;28;20645;-75
2022/01/24 03:16:48;;;;;;;12.93;7.50;;;5.10;99.90;;;;;;4978694;28;20562;-73
2022/01/24 03:19:14;;;;;;;12.53;7.07;;;5.10;99.90;;;;;;4980941;28;20195;-74
2022/01/24 03:21:42;;;;;;;13.47;7.67;;;5.10;99.90;;;;;;4981753;28;20199;-75
2022/01/24 03:24:08;;;;;;;14.50;7.47;;;5.10;99.90;;;;;;4981524;28;20262;-75
2022/01/24 03:26:33;;;;;;;14.27;7.70;;;5.10;99.90;;;;;;4983774;28;20233;-74
2022/01/24 03:28:59;;;;;;;15.13;8.57;;;5.10;99.90;;;;;;4980181;28;20184;-75
2022/01/24 03:31:24;;;;;;;12.50;8.23;;;5.10;99.90;;;;;;4978583;28;20622;-74
2022/01/24 03:33:50;;;;;;;17.63;8.47;;;5.10;99.90;;;;;;4981376;28;20228;-74
2022/01/24 03:36:16;;;;;;;16.23;8.10;;;5.10;99.90;;;;;;4980525;28;20193;-74
2022/01/24 03:38:42;;;;;;;13.97;7.93;;;5.10;99.90;;;;;;4980094;28;20189;-74
2022/01/24 03:41:07;;;;;;;14.40;7.87;;;5.10;99.90;;;;;;4979701;28;20184;-74
2022/01/24 03:43:34;;;;;;;13.90;7.07;;;5.10;99.90;;;;;;4978659;28;20270;-74
2022/01/24 03:51:08;;;;;;;15.07;7.90;;;5.10;99.90;;;;;;4980278;28;20184;-75
2022/01/24 03:53:34;;;;;;;14.20;7.83;;;5.10;99.90;;;;;;4980912;28;20201;-82
2022/01/24 03:56:00;;;;;;;12.93;7.80;;;5.10;99.90;;;;;;4981310;28;20271;-74
2022/01/24 03:58:25;;;;;;;13.80;7.73;;;5.10;99.90;;;;;;4982268;28;20275;-74
2022/01/24 04:00:51;;;;;;;16.83;8.23;;;5.10;99.90;;;;;;4977375;28;20184;-75
2022/01/24 04:03:17;;;;;;;14.70;7.87;;;5.10;99.90;;;;;;4974665;28;20291;-75
2022/01/24 04:05:43;;;;;;;16.53;8.17;;;5.10;99.90;;;;;;4974703;28;20620;-74
2022/01/24 04:08:09;;;;;;;15.33;8.80;;;5.10;99.90;;;;;;4978196;28;20235;-75
2022/01/24 04:10:42;;;;;;;13.13;8.00;;;5.10;99.90;;;;;;4976351;28;20185;-74
2022/01/24 04:13:22;;;;;;;14.83;8.53;;;5.10;99.90;;;;;;4977658;28;20180;-75
2022/01/24 04:16:53;;;;;;;17.03;8.87;;;5.20;99.90;;;;;;4974334;28;20221;-75
2022/01/24 04:21:17;;;;;;;16.67;8.77;;;5.20;99.90;;;;;;4959431;28;20225;-75
2022/01/24 04:21:36;;;;;;;14.03;7.93;;;5.20;99.90;;;;;;4971950;28;20201;-74
2022/01/24 04:24:07;;;;;;;15.30;7.87;;;5.20;99.90;;;;;;4973891;28;20209;-77
2022/01/24 04:26:35;;;;;;;14.03;7.40;;;5.20;99.90;;;;;;4979115;28;20181;-74
2022/01/24 04:29:00;;;;;;;15.67;8.17;;;5.20;99.90;;;;;;4974405;28;20180;-74
2022/01/24 04:31:28;;;;;;;15.33;8.47;;;5.20;99.90;;;;;;4975673;28;20185;-74
2022/01/24 04:33:53;;;;;;;15.00;7.60;;;5.20;99.90;;;;;;4974451;28;20231;-74
2022/01/24 04:36:20;;;;;;;13.57;8.37;;;5.20;99.90;;;;;;4972270;28;20774;-74
2022/01/24 04:38:46;;;;;;;16.00;8.33;;;5.20;99.90;;;;;;4973097;28;20691;-77
2022/01/24 04:41:25;;;;;;;13.43;8.13;;;5.20;99.90;;;;;;4958491;28;20193;-75
2022/01/24 04:56:42;;;;;;;14.30;8.23;;;5.20;99.90;;;;;;4975110;28;20192;-75
2022/01/24 04:59:09;;;;;;;15.53;8.70;;;5.20;99.90;;;;;;4972740;28;20192;-74
2022/01/24 05:01:35;;;;;;;15.23;8.47;;;5.30;99.90;;;;;;4972188;28;20227;-74
2022/01/24 05:04:01;;;;;;;18.20;9.50;;;5.20;99.90;;;;;;4960314;28;20250;-74
2022/01/24 05:06:27;;;;;;;17.83;9.57;;;5.20;99.90;;;;;;4977601;28;20551;-73
2022/01/24 05:08:53;;;;;;;17.00;9.43;;;5.20;99.90;;;;;;4975726;28;20176;-74
2022/01/24 05:11:25;;;;;;;19.00;10.13;;;5.20;99.90;;;;;;4978190;28;20203;-74
2022/01/24 05:24:34;;;;;;;16.47;9.40;;;5.20;99.90;;;;;;4973199;28;20307;-74
2022/01/24 05:27:00;;;;;;;18.47;10.53;;;5.20;99.90;;;;;;4979104;28;20188;-74
2022/01/24 05:29:26;;;;;;;21.87;10.13;;;5.20;99.90;;;;;;4977868;28;20618;-75
2022/01/24 05:31:51;;;;;;;19.93;11.23;;;5.20;99.90;;;;;;4977430;28;20247;-77
2022/01/24 05:34:17;;;;;;;21.37;11.83;;;5.20;99.90;;;;;;4966610;28;20217;-74
2022/01/24 05:36:43;;;;;;;19.53;11.27;;;5.20;99.90;;;;;;4970803;28;20420;-74
2022/01/24 05:39:11;;;;;;;22.30;11.77;;;5.30;99.90;;;;;;4973342;28;20633;-75
2022/01/24 05:41:37;;;;;;;23.33;11.87;;;5.20;99.90;;;;;;4977194;28;20547;-75
2022/01/24 05:44:04;;;;;;;18.70;11.67;;;5.20;99.90;;;;;;4978157;28;20559;-74
2022/01/24 05:46:29;;;;;;;21.90;11.80;;;5.20;99.90;;;;;;4978262;28;20187;-74
2022/01/24 05:48:55;;;;;;;18.30;11.07;;;5.10;99.90;;;;;;4979677;28;20184;-74
2022/01/24 05:51:22;;;;;;;21.03;12.00;;;5.10;99.90;;;;;;4975621;28;20203;-77
2022/01/24 05:53:47;;;;;;;20.77;11.97;;;5.10;99.90;;;;;;4969160;28;20289;-75
2022/01/24 05:56:13;;;;;;;22.40;12.80;;;5.10;99.90;;;;;;4975626;28;20299;-75
2022/01/24 05:58:39;;;;;;;23.33;13.00;;;5.10;99.90;;;;;;4975928;28;20264;-73
2022/01/24 06:01:04;;;;;;;26.23;13.63;;;5.20;99.90;;;;;;4980321;28;20188;-78
2022/01/24 06:03:30;;;;;;;27.87;15.53;;;5.10;99.90;;;;;;4975836;28;20239;-73
2022/01/24 06:05:56;;;;;;;27.07;14.83;;;5.10;99.90;;;;;;4976758;28;20385;-74
2022/01/24 06:08:23;;;;;;;22.93;13.63;;;5.10;99.90;;;;;;4976458;28;20232;-74
2022/01/24 06:10:48;;;;;;;27.00;14.97;;;5.10;99.90;;;;;;4972072;28;20665;-74
2022/01/24 06:13:15;;;;;;;23.00;14.03;;;5.10;99.90;;;;;;4980658;28;20381;-74
2022/01/24 06:15:42;;;;;;;29.07;14.83;;;5.10;99.90;;;;;;4974327;28;20194;-73
2022/01/24 06:18:08;;;;;;;30.50;15.90;;;5.10;99.90;;;;;;4968050;28;20193;-74
2022/01/24 06:20:34;;;;;;;27.23;14.83;;;5.10;99.90;;;;;;4982596;28;20714;-73
2022/01/24 06:22:59;;;;;;;24.53;13.83;;;5.10;99.90;;;;;;4970972;28;20559;-74
2022/01/24 06:25:25;;;;;;;28.90;16.23;;;5.10;99.90;;;;;;4975815;28;20299;-74
2022/01/24 06:27:52;;;;;;;26.57;15.40;;;5.10;99.90;;;;;;4973468;28;20181;-74
2022/01/24 06:30:18;;;;;;;27.07;15.57;;;5.00;99.90;;;;;;4966269;28;20437;-76
2022/01/24 06:32:43;;;;;;;29.47;15.80;;;5.00;99.90;;;;;;4980237;28;20184;-75
2022/01/24 06:35:11;;;;;;;28.23;15.57;;;5.10;99.90;;;;;;4971553;28;20536;-74
2022/01/24 06:37:37;;;;;;;28.33;16.03;;;5.10;99.90;;;;;;4970984;28;20198;-75
2022/01/24 06:40:07;;;;;;;24.20;14.90;;;5.10;99.90;;;;;;4969533;28;20270;-74
2022/01/24 06:42:33;;;;;;;27.80;15.97;;;5.10;99.90;;;;;;4976644;28;20307;-74
2022/01/24 06:44:59;;;;;;;26.97;15.67;;;5.10;99.90;;;;;;4974308;28;20285;-74
2022/01/24 06:47:25;;;;;;;30.93;16.87;;;5.10;99.90;;;;;;4977200;28;20189;-74
2022/01/24 06:49:51;;;;;;;29.83;16.40;;;5.30;99.90;;;;;;4972523;28;20347;-75
2022/01/24 06:52:17;;;;;;;35.83;18.00;;;5.30;99.90;;;;;;4973557;28;20239;-74
2022/01/24 06:54:44;;;;;;;37.77;17.07;;;5.10;99.90;;;;;;4967092;28;20204;-74
2022/01/24 06:57:11;;;;;;;31.20;16.40;;;5.10;99.90;;;;;;4979925;28;20195;-75
2022/01/24 06:59:41;;;;;;;31.33;16.57;;;5.10;99.90;;;;;;4953348;28;20558;-74
2022/01/24 07:02:08;;;;;;;34.83;16.40;;;5.10;99.90;;;;;;4968167;28;20668;-74
2022/01/24 07:04:36;;;;;;;30.53;16.47;;;5.10;99.90;;;;;;4970286;28;20216;-79
2022/01/24 07:07:03;;;;;;;32.60;16.77;;;5.10;99.90;;;;;;4969791;28;20211;-73
2022/01/24 07:09:28;;;;;;;30.57;16.47;;;5.10;99.90;;;;;;4975399;28;20707;-73
2022/01/24 07:11:54;;;;;;;30.67;16.93;;;5.10;99.90;;;;;;4970055;28;20193;-75
2022/01/24 07:14:20;;;;;;;30.63;16.63;;;5.10;99.90;;;;;;4965400;28;20219;-73
2022/01/24 07:19:21;;;;;;;28.87;15.57;;;5.10;99.90;;;;;;4969047;28;20648;-77
2022/01/24 07:21:47;;;;;;;29.23;16.13;;;5.10;99.90;;;;;;4978228;28;20239;-73
2022/01/24 07:24:13;;;;;;;31.97;16.77;;;5.10;99.90;;;;;;4955946;28;20220;-74
2022/01/24 07:26:39;;;;;;;32.47;19.80;;;5.10;99.90;;;;;;4975544;28;20236;-73
2022/01/24 07:29:04;;;;;;;32.57;18.50;;;5.10;99.90;;;;;;4973504;28;20189;-74
2022/01/24 07:31:30;;;;;;;32.17;17.73;;;5.20;99.90;;;;;;4971686;28;20184;-74
2022/01/24 07:33:56;;;;;;;29.03;15.97;;;5.20;99.90;;;;;;4948880;28;20220;-74
2022/01/24 07:36:23;;;;;;;29.50;16.83;;;5.20;99.90;;;;;;4983506;28;20192;-79
2022/01/24 07:38:49;;;;;;;31.07;17.23;;;5.10;99.90;;;;;;4978626;28;20188;-74
2022/01/24 07:41:17;;;;;;;28.57;15.57;;;5.10;99.90;;;;;;4980364;28;20218;-74
2022/01/24 07:43:43;;;;;;;28.20;15.73;;;5.10;99.90;;;;;;4980717;28;20275;-77
2022/01/24 07:46:09;;;;;;;30.93;16.20;;;5.10;99.90;;;;;;4971456;28;20622;-74
2022/01/24 07:48:35;;;;;;;28.37;15.87;;;5.20;99.90;;;;;;4979822;28;20548;-78
2022/01/24 07:51:00;;;;;;;30.20;16.90;;;5.10;99.90;;;;;;4975167;28;20732;-74
2022/01/24 07:53:26;;;;;;;28.07;16.30;;;5.20;99.90;;;;;;4973336;28;20299;-74
2022/01/24 07:55:53;;;;;;;32.20;17.70;;;5.20;99.90;;;;;;4975582;28;20188;-74
2022/01/24 07:58:19;;;;;;;35.43;18.00;;;5.40;99.90;;;;;;4972323;28;20189;-75
2022/01/24 08:00:45;;;;;;;31.73;16.73;;;5.30;99.90;;;;;;4970238;28;20200;-76
2022/01/24 08:03:11;;;;;;;33.77;17.57;;;5.30;99.90;;;;;;4967368;28;20193;-76
2022/01/24 08:05:37;;;;;;;34.70;17.30;;;5.20;99.90;;;;;;4954220;28;20247;-76
2022/01/24 08:08:04;;;;;;;32.60;17.37;;;5.20;99.90;;;;;;4974494;28;20207;-74
2022/01/24 08:10:29;;;;;;;32.33;18.30;;;5.20;99.90;;;;;;4976292;28;20208;-74
2022/01/24 08:12:55;;;;;;;28.13;15.67;;;5.20;99.90;;;;;;4980811;28;20685;-74
2022/01/24 08:15:21;;;;;;;32.53;17.63;;;5.20;99.90;;;;;;4980512;28;20259;-73
2022/01/24 08:17:47;;;;;;;30.73;17.17;;;5.20;99.90;;;;;;4979279;28;20188;-76
2022/01/24 08:20:15;;;;;;;30.07;16.17;;;5.20;99.90;;;;;;4983275;28;20189;-74
2022/01/24 08:22:41;;;;;;;34.60;16.97;;;5.30;99.90;;;;;;4976160;28;20652;-74
2022/01/24 08:25:07;;;;;;;28.47;15.83;;;5.30;99.90;;;;;;4959006;28;20834;-74
2022/01/24 08:27:34;;;;;;;32.57;16.47;;;5.30;99.90;;;;;;4978457;28;20192;-74
2022/01/24 08:30:03;;;;;;;28.60;15.73;;;5.30;99.90;;;;;;4977029;28;20239;-74
2022/01/24 08:32:29;;;;;;;34.03;17.10;;;5.40;99.90;;;;;;4960419;28;20611;-77
2022/01/24 08:34:56;;;;;;;28.53;15.90;;;5.40;99.90;;;;;;4974162;28;20205;-74
2022/01/24 08:37:22;;;;;;;31.70;16.37;;;5.40;99.90;;;;;;4976932;28;20196;-73
2022/01/24 08:39:47;;;;;;;32.23;17.47;;;5.50;99.90;;;;;;4977831;28;20184;-74
2022/01/24 08:42:15;;;;;;;30.67;16.40;;;5.50;99.90;;;;;;4975958;28;20597;-74
2022/01/24 08:47:29;;;;;;;28.47;15.53;;;5.50;99.90;;;;;;4973936;28;20180;-74
2022/01/24 08:49:56;;;;;;;27.67;15.03;;;5.60;99.90;;;;;;4975765;28;20172;-74
2022/01/24 08:52:22;;;;;;;30.73;16.33;;;5.60;99.90;;;;;;4979099;28;20283;-73
2022/01/24 08:54:48;;;;;;;31.23;17.53;;;5.60;99.90;;;;;;4977315;28;20291;-73
2022/01/24 08:57:14;;;;;;;31.73;17.63;;;5.60;99.90;;;;;;4974901;28;20207;-73
2022/01/24 08:59:41;;;;;;;29.93;16.50;;;5.70;99.90;;;;;;4980220;28;20185;-74
2022/01/24 09:02:08;;;;;;;32.33;16.67;;;5.70;99.90;;;;;;4980583;28;20649;-73
2022/01/24 09:04:34;;;;;;;30.17;15.93;;;5.70;99.90;;;;;;4975135;28;20225;-74
2022/01/24 09:07:03;;;;;;;30.47;15.60;;;5.70;99.90;;;;;;4976320;28;20201;-73
2022/01/24 09:09:34;;;;;;;29.17;15.27;;;5.70;99.90;;;;;;4975493;28;20177;-73
2022/01/24 09:12:05;;;;;;;33.70;17.27;;;5.80;99.90;;;;;;4979048;28;20235;-72
2022/01/24 09:14:31;;;;;;;32.87;17.07;;;5.90;99.90;;;;;;4977745;28;20686;-73
2022/01/24 09:16:56;;;;;;;28.33;16.00;;;5.90;99.90;;;;;;4958537;28;20242;-72
2022/01/24 09:19:22;;;;;;;31.87;16.70;;;5.90;99.90;;;;;;4976417;28;20199;-72
2022/01/24 09:21:48;;;;;;;30.13;16.30;;;5.90;99.90;;;;;;4974403;28;20561;-72
2022/01/24 09:24:13;;;;;;;30.60;16.63;;;6.00;99.90;;;;;;4972137;28;20270;-73
2022/01/24 09:26:39;;;;;;;28.97;14.40;;;6.00;99.90;;;;;;4977480;28;21139;-73
2022/01/24 09:29:05;;;;;;;28.87;15.97;;;6.00;99.90;;;;;;4975834;28;20176;-73
2022/01/24 09:31:31;;;;;;;28.33;15.97;;;6.00;99.90;;;;;;4973128;28;20271;-72
2022/01/24 09:33:57;;;;;;;26.30;14.70;;;6.10;99.90;;;;;;4972557;28;20672;-73
2022/01/24 09:36:23;;;;;;;24.47;13.80;;;6.10;99.90;;;;;;4976079;28;20259;-72
2022/01/24 09:38:49;;;;;;;26.23;14.33;;;6.10;99.90;;;;;;4965419;28;20903;-73
2022/01/24 09:41:15;;;;;;;30.93;14.70;;;6.20;99.90;;;;;;4959962;28;20323;-73
2022/01/24 09:43:45;;;;;;;22.93;12.37;;;6.20;99.90;;;;;;4977131;28;20203;-74
2022/01/24 09:46:12;;;;;;;22.40;11.30;;;6.20;99.90;;;;;;4977509;28;20184;-72
2022/01/24 09:48:39;;;;;;;24.97;14.20;;;6.20;99.90;;;;;;4974498;28;20193;-73
2022/01/24 09:51:05;;;;;;;23.07;13.13;;;6.30;99.90;;;;;;4954675;28;20280;-73
2022/01/24 09:53:32;;;;;;;21.23;12.27;;;6.30;99.90;;;;;;4975768;28;20220;-73
2022/01/24 09:56:03;;;;;;;19.50;10.50;;;6.30;99.90;;;;;;4975310;28;20196;-72
2022/01/24 09:58:29;;;;;;;15.53;9.27;;;6.40;99.90;;;;;;4973836;28;20188;-73
2022/01/24 10:00:55;;;;;;;16.50;9.37;;;6.40;99.90;;;;;;4977236;28;20204;-74
2022/01/24 10:03:23;;;;;;;17.03;9.73;;;6.40;99.90;;;;;;4973384;28;20209;-73
2022/01/24 10:05:54;;;;;;;16.80;9.30;;;6.40;99.90;;;;;;4979372;28;20237;-73
2022/01/24 10:08:22;;;;;;;15.13;9.50;;;6.40;99.90;;;;;;4974681;28;20193;-74
2022/01/24 10:10:51;;;;;;;16.33;8.33;;;6.30;99.90;;;;;;4977743;28;20188;-73
2022/01/24 10:19:03;;;;;;;17.37;10.03;;;6.50;99.90;;;;;;4976289;28;20176;-73
2022/01/24 10:21:29;;;;;;;15.13;8.83;;;6.50;99.90;;;;;;4976151;28;20187;-74
2022/01/24 10:23:56;;;;;;;14.80;9.70;;;6.50;99.90;;;;;;4975474;28;20247;-74
2022/01/24 10:26:24;;;;;;;18.57;10.80;;;6.40;99.90;;;;;;4972132;28;20545;-75
2022/01/24 10:28:50;;;;;;;17.10;10.40;;;6.40;99.90;;;;;;4977116;28;20192;-73
2022/01/24 10:31:28;;;;;;;15.67;9.60;;;6.40;99.90;;;;;;4973831;28;20180;-72
2022/01/24 10:34:45;;;;;;;16.10;8.87;;;6.30;99.90;;;;;;4970796;28;20278;-72
2022/01/24 10:36:57;;;;;;;19.20;11.90;;;6.30;99.90;;;;;;4967180;28;20295;-74
2022/01/24 10:45:16;;;;;;;14.47;8.10;;;6.40;99.90;;;;;;4972867;28;20222;-74
2022/01/24 10:47:45;;;;;;;13.93;7.53;;;6.30;99.90;;;;;;4975669;28;20187;-74
2022/01/24 10:50:25;;;;;;;13.77;8.57;;;6.30;99.90;;;;;;4976073;28;20263;-74
2022/01/24 10:52:52;;;;;;;12.40;7.40;;;6.40;99.90;;;;;;4974524;28;20192;-76
2022/01/24 10:55:28;;;;;;;12.23;7.20;;;6.50;99.90;;;;;;4973344;28;20307;-75
2022/01/24 10:58:16;;;;;;;9.03;6.23;;;6.50;99.90;;;;;;4972263;28;20247;-75
2022/01/24 11:00:42;;;;;;;11.83;6.43;;;6.50;99.90;;;;;;4970399;28;20226;-75
2022/01/24 11:03:18;;;;;;;11.90;6.97;;;6.50;99.90;;;;;;4971081;28;20277;-74
2022/01/24 11:05:44;;;;;;;11.27;6.67;;;6.50;99.90;;;;;;4972796;28;20258;-74
2022/01/24 11:08:13;;;;;;;13.97;7.63;;;6.50;99.90;;;;;;4979812;28;20206;-74
2022/01/24 11:10:44;;;;;;;13.03;7.57;;;6.40;99.90;;;;;;4978417;28;20180;-74
2022/01/24 11:13:12;;;;;;;12.40;7.53;;;6.40;99.90;;;;;;4977412;28;20184;-75
2022/01/24 11:15:41;;;;;;;11.07;5.93;;;6.50;99.90;;;;;;4980863;28;20659;-75
2022/01/24 11:18:07;;;;;;;6.80;4.20;;;6.60;99.90;;;;;;4981245;28;20188;-74
2022/01/24 11:20:39;;;;;;;4.80;3.53;;;6.60;99.90;;;;;;4979902;28;20192;-74
2022/01/24 11:23:07;;;;;;;7.07;5.33;;;6.70;99.90;;;;;;4984189;28;20275;-74
2022/01/24 11:25:36;;;;;;;7.63;5.37;;;6.70;99.90;;;;;;4972049;28;20220;-74
2022/01/24 11:28:03;;;;;;;6.00;4.40;;;6.70;99.90;;;;;;4978151;28;20278;-73
2022/01/24 11:30:37;;;;;;;8.20;5.63;;;6.60;99.90;;;;;;4976469;28;20189;-79
2022/01/24 11:33:12;;;;;;;5.13;3.93;;;6.70;99.90;;;;;;4979154;28;20212;-78
2022/01/24 11:35:50;;;;;;;3.43;2.60;;;6.60;99.90;;;;;;4978981;28;20176;-74
2022/01/24 11:38:35;;;;;;;3.00;2.50;;;6.70;99.90;;;;;;4969080;28;20596;-74
2022/01/24 11:41:32;;;;;;;3.23;2.63;;;6.70;99.90;;;;;;4976040;28;20596;-74
2022/01/24 11:44:07;;;;;;;3.13;2.60;;;6.70;99.90;;;;;;4974116;28;20208;-73
2022/01/24 11:47:02;;;;;;;3.57;2.80;;;6.70;99.90;;;;;;4969725;28;20192;-73
2022/01/24 11:49:35;;;;;;;3.67;2.80;;;6.60;99.90;;;;;;4975185;28;20267;-74
2022/01/24 11:52:12;;;;;;;4.67;3.60;;;6.60;99.90;;;;;;4976027;28;20448;-74
2022/01/24 11:57:27;;;;;;;5.23;2.97;;;6.40;99.90;;;;;;4974402;28;20199;-75
2022/01/24 12:00:01;;;;;;;3.03;2.50;;;6.50;99.90;;;;;;4973839;28;20195;-74
2022/01/24 12:02:29;;;;;;;1.93;1.50;;;6.50;99.90;;;;;;4977422;28;20875;-75
2022/01/24 12:04:54;;;;;;;1.47;1.37;;;6.50;99.90;;;;;;4971519;28;20221;-74
2022/01/24 12:07:25;;;;;;;1.63;1.17;;;6.50;99.90;;;;;;4977565;28;20289;-73
2022/01/24 12:10:14;;;;;;;1.23;1.03;;;6.60;99.90;;;;;;4973112;28;20184;-74
2022/01/24 12:12:50;;;;;;;1.57;1.30;;;6.50;99.90;;;;;;4971985;28;20192;-73
2022/01/24 12:15:37;;;;;;;2.53;1.23;;;6.40;99.90;;;;;;4977512;28;20347;-72
2022/01/24 12:18:08;;;;;;;1.47;1.37;;;6.30;99.90;;;;;;4974378;28;20565;-73
2022/01/24 12:20:36;;;;;;;1.10;1.00;;;6.20;99.90;;;;;;4972783;28;20497;-74
2022/01/24 12:23:21;;;;;;;2.60;1.30;;;6.30;99.90;;;;;;4975957;28;20199;-73
2022/01/24 12:26:08;;;;;;;1.07;0.80;;;6.40;99.90;;;;;;4975529;28;20251;-73
2022/01/24 12:28:42;;;;;;;2.10;1.17;;;6.30;99.90;;;;;;4964376;28;20204;-77
2022/01/24 12:31:08;;;;;;;1.17;0.90;;;6.30;99.90;;;;;;4972238;28;20196;-73
2022/01/24 12:33:38;;;;;;;1.10;1.00;;;6.30;99.90;;;;;;4975923;28;20203;-75
2022/01/24 12:36:07;;;;;;;3.23;2.30;;;6.30;99.90;;;;;;4949389;28;20275;-75
2022/01/24 12:38:43;;;;;;;1.10;1.00;;;6.20;99.90;;;;;;4956435;28;20239;-74
2022/01/24 12:41:38;;;;;;;5.60;3.57;;;6.30;99.90;;;;;;4973915;28;20184;-74
2022/01/24 12:46:32;;;;;;;4.73;3.40;;;6.20;99.90;;;;;;4974868;28;20193;-75
2022/01/24 12:49:05;;;;;;;5.77;4.57;;;6.20;99.90;;;;;;4975900;28;20184;-75
2022/01/24 12:51:35;;;;;;;6.40;5.20;;;6.20;99.90;;;;;;4974463;28;20250;-74
2022/01/24 12:54:04;;;;;;;7.33;6.13;;;6.30;99.90;;;;;;4974494;28;20214;-74
2022/01/24 12:56:31;;;;;;;4.87;3.30;;;6.30;99.90;;;;;;4977700;28;20180;-72
2022/01/24 12:58:57;;;;;;;5.47;3.37;;;6.30;99.90;;;;;;4974971;28;20540;-74
2022/01/24 13:01:25;;;;;;;4.47;2.93;;;6.20;99.90;;;;;;4975815;28;20192;-76
2022/01/24 13:03:55;;;;;;;5.07;3.10;;;6.20;99.90;;;;;;4975453;28;20633;-73
2022/01/24 13:06:22;;;;;;;4.30;3.37;;;6.20;99.90;;;;;;4975804;28;20271;-74
2022/01/24 13:08:55;;;;;;;5.63;3.50;;;6.20;99.90;;;;;;4976435;28;20251;-75
2022/01/24 13:11:21;;;;;;;7.13;5.40;;;6.30;99.90;;;;;;4976864;28;20227;-74
2022/01/24 13:14:01;;;;;;;10.10;8.43;;;6.30;99.90;;;;;;4974712;28;20291;-74
2022/01/24 13:22:33;;;;;;;8.00;5.37;;;6.20;99.90;;;;;;4973778;28;20664;-72
2022/01/24 13:25:05;;;;;;;3.30;2.87;;;6.20;99.90;;;;;;4957044;28;20208;-73
2022/01/24 13:27:36;;;;;;;4.93;3.53;;;6.20;99.90;;;;;;4974571;28;20173;-72
2022/01/24 13:30:04;;;;;;;5.70;3.50;;;6.30;99.90;;;;;;4969534;28;20183;-73
2022/01/24 13:33:04;;;;;;;8.03;4.87;;;6.20;99.90;;;;;;4967748;28;20212;-73
2022/01/24 13:35:36;;;;;;;5.37;4.00;;;6.20;99.90;;;;;;4929623;28;20221;-74
2022/01/24 13:38:12;;;;;;;9.53;8.63;;;6.20;99.90;;;;;;4971452;28;20649;-72
2022/01/24 13:40:42;;;;;;;19.63;10.97;;;6.30;99.90;;;;;;4976220;28;20176;-72
2022/01/24 13:43:10;;;;;;;42.33;21.37;;;6.20;99.90;;;;;;4956231;28;20185;-73
2022/01/24 13:45:41;;;;;;;21.00;11.57;;;6.20;99.90;;;;;;4972705;28;20219;-75
2022/01/24 13:48:17;;;;;;;11.30;6.87;;;6.10;99.90;;;;;;4972241;28;20184;-72
2022/01/24 13:50:54;;;;;;;5.70;4.43;;;6.10;99.90;;;;;;4972602;28;20181;-75
2022/01/24 13:53:33;;;;;;;1.90;1.60;;;6.10;99.90;;;;;;4973239;28;20200;-73
2022/01/24 13:55:59;;;;;;;2.87;2.00;;;6.10;99.90;;;;;;4974967;28;20747;-77
2022/01/24 13:58:26;;;;;;;2.37;1.23;;;6.10;99.90;;;;;;4973462;28;20205;-75
2022/01/24 14:01:01;;;;;;;6.33;1.43;;;6.10;99.90;;;;;;4973464;28;20331;-72
2022/01/24 14:03:27;;;;;;;8.17;1.40;;;6.10;99.90;;;;;;4968966;28;20310;-74
2022/01/24 14:06:17;;;;;;;2.77;0.80;;;6.00;99.90;;;;;;4972129;28;20227;-72
2022/01/24 14:08:44;;;;;;;1.13;0.77;;;6.00;99.90;;;;;;4970823;28;20239;-73
2022/01/24 14:11:15;;;;;;;5.87;1.00;;;6.00;99.90;;;;;;4972474;28;20197;-74
2022/01/24 14:13:52;;;;;;;1.93;1.07;;;6.00;99.90;;;;;;4972246;28;20200;-73
2022/01/24 14:19:07;;;;;;;1.20;0.70;;;6.00;99.90;;;;;;4968671;28;20666;-74
2022/01/24 14:21:33;;;;;;;8.37;1.63;;;6.00;99.90;;;;;;4972815;28;20324;-74
2022/01/24 14:24:00;;;;;;;1.80;1.20;;;6.00;99.90;;;;;;4954117;28;20208;-75
2022/01/24 14:26:29;;;;;;;0.60;0.60;;;6.00;99.90;;;;;;4969579;28;20600;-72
2022/01/24 14:29:10;;;;;;;1.10;0.77;;;5.90;99.90;;;;;;4975130;28;20215;-74
2022/01/24 14:31:36;;;;;;;1.63;0.70;;;5.90;99.90;;;;;;4970692;28;20184;-75
2022/01/24 14:34:05;;;;;;;1.00;0.80;;;5.90;99.90;;;;;;4965260;28;20232;-75
2022/01/24 14:36:32;;;;;;;1.23;0.90;;;5.90;99.90;;;;;;4956405;28;20193;-75
2022/01/24 14:39:06;;;;;;;0.70;0.70;;;5.90;99.90;;;;;;4968164;28;20247;-75
2022/01/24 14:41:44;;;;;;;1.23;0.90;;;5.90;99.90;;;;;;4973342;28;20704;-74
2022/01/24 14:46:56;;;;;;;1.47;0.90;;;5.90;99.90;;;;;;4969408;28;20619;-78
2022/01/24 14:49:28;;;;;;;0.77;0.60;;;5.80;99.90;;;;;;4969122;28;20528;-74
2022/01/24 14:51:59;;;;;;;1.30;0.60;;;5.80;99.90;;;;;;4970436;28;20721;-75
2022/01/24 14:54:27;;;;;;;1.03;0.90;;;5.80;99.90;;;;;;4970645;28;20208;-72
2022/01/24 14:56:58;;;;;;;1.73;1.10;;;5.80;99.90;;;;;;4974752;28;20193;-73
2022/01/24 14:59:24;;;;;;;1.90;1.37;;;5.90;99.90;;;;;;4972427;28;20741;-74
2022/01/24 15:01:51;;;;;;;2.50;1.57;;;5.90;99.90;;;;;;4967808;28;20235;-75
2022/01/24 15:04:16;;;;;;;1.77;1.60;;;5.80;99.90;;;;;;4970372;28;20232;-74
2022/01/24 15:06:44;;;;;;;1.90;1.50;;;5.80;99.90;;;;;;4972708;28;20194;-73
2022/01/24 15:09:13;;;;;;;1.93;1.53;;;5.80;99.90;;;;;;4968414;28;20509;-75
2022/01/24 15:11:42;;;;;;;1.40;1.30;;;5.80;99.90;;;;;;4974105;28;20184;-75
2022/01/24 15:14:23;;;;;;;3.87;3.17;;;5.70;99.90;;;;;;4967973;28;20215;-74
2022/01/24 15:17:21;;;;;;;3.80;2.70;;;5.80;99.90;;;;;;4964268;28;20188;-74
2022/01/24 15:25:20;;;;;;;1.57;1.47;;;5.70;99.90;;;;;;4969109;28;20250;-75